createdAt,value
2022-07-28T00:00:03.023Z,100144.94
2022-07-28T00:05:05.538Z,100144.81
2022-07-28T00:10:07.963Z,100140.63
2022-07-28T00:15:10.262Z,100136.31
2022-07-28T00:20:12.319Z,100145.34
2022-07-28T00:25:20.663Z,100136.38
2022-07-28T00:30:22.423Z,100137.75
2022-07-28T00:35:30.172Z,100138.41
2022-07-28T00:40:51.123Z,100130.63
2022-07-28T00:45:52.848Z,100131.75
2022-07-28T00:50:54.668Z,100122.06
2022-07-28T00:56:03.561Z,100122.41
2022-07-28T01:01:10.300Z,100109.09
2022-07-28T01:06:33.524Z,100124.53
2022-07-28T01:11:59.568Z,100120.25
2022-07-28T01:17:09.244Z,100118.75
2022-07-28T01:22:15.709Z,100115.75
2022-07-28T01:27:59.252Z,100112.31
2022-07-28T01:33:33.860Z,100113.38
2022-07-28T01:38:37.296Z,100111.59
2022-07-28T01:43:42.617Z,100101.41
2022-07-28T01:48:47.133Z,100107.44
2022-07-28T01:53:51.797Z,100102.09
2022-07-28T01:58:56.599Z,100094.97
2022-07-28T02:04:01.781Z,100096.47
2022-07-28T02:09:06.943Z,100091.16
2022-07-28T02:14:14.427Z,100083.81
2022-07-28T02:19:18.516Z,100078.91
2022-07-28T02:24:26.653Z,100078.03
2022-07-28T02:29:50.307Z,100073.72
2022-07-28T02:34:53.663Z,100066.75
2022-07-28T02:40:00.178Z,100071.09
2022-07-28T02:45:06.984Z,100059.25
2022-07-28T02:50:10.817Z,100059.38
2022-07-28T02:55:15.066Z,100061.25
2022-07-28T03:00:17.376Z,100062.56
2022-07-28T03:05:19.579Z,100054.72
2022-07-28T03:10:33.935Z,100059.72
2022-07-28T03:15:37.602Z,100062.56
2022-07-28T03:20:39.381Z,100062.59
2022-07-28T03:25:48.260Z,100065.41
2022-07-28T03:30:58.258Z,100060.69
2022-07-28T03:36:05.731Z,100056.53
2022-07-28T03:41:09.737Z,100049.84
2022-07-28T03:46:13.618Z,100051.41
2022-07-28T03:51:15.473Z,100047.19
2022-07-28T03:56:17.206Z,100064.78
2022-07-28T04:01:19.009Z,100056.94
2022-07-28T04:06:20.774Z,100066.75
2022-07-28T04:11:23.334Z,100058.72
2022-07-28T04:16:25.076Z,100063.59
2022-07-28T04:21:26.955Z,100064.41
2022-07-28T04:26:28.689Z,100053.84
2022-07-28T04:31:30.808Z,100060.38
2022-07-28T04:36:32.978Z,100057.41
2022-07-28T04:41:35.525Z,100055.66
2022-07-28T04:46:37.327Z,100039.94
2022-07-28T04:51:39.202Z,100038.78
2022-07-28T04:56:41.092Z,100029.91
2022-07-28T05:01:43.667Z,100034.72
2022-07-28T05:06:45.466Z,100038.31
2022-07-28T05:11:47.362Z,100040.19
2022-07-28T05:16:49.122Z,100035.13
2022-07-28T05:21:50.898Z,100034.78
2022-07-28T05:26:52.608Z,100040.13
2022-07-28T05:31:54.638Z,100048.78
2022-07-28T05:36:56.487Z,100040.69
2022-07-28T05:41:58.234Z,100039.22
2022-07-28T05:46:59.987Z,100037.00
2022-07-28T05:52:01.703Z,100035.34
2022-07-28T05:57:03.429Z,100037.69
2022-07-28T06:02:05.184Z,100045.16
2022-07-28T06:07:06.996Z,100036.47
2022-07-28T06:12:09.000Z,100038.41
2022-07-28T06:17:10.805Z,100038.25
2022-07-28T06:22:12.682Z,100036.94
2022-07-28T06:27:14.424Z,100036.94
2022-07-28T06:32:17.212Z,100039.88
2022-07-28T06:37:18.937Z,100031.94
2022-07-28T06:42:20.652Z,100032.25
2022-07-28T06:47:22.374Z,100031.81
2022-07-28T06:52:24.429Z,100028.47
2022-07-28T06:57:31.964Z,100036.81
2022-07-28T07:02:42.534Z,100037.44
2022-07-28T07:07:44.354Z,100034.41
2022-07-28T07:12:46.214Z,100032.16
2022-07-28T07:17:47.937Z,100019.00
2022-07-28T07:22:49.711Z,100020.78
2022-07-28T07:27:51.432Z,100022.03
2022-07-28T07:32:53.141Z,100009.59
2022-07-28T07:37:56.157Z,100002.78
2022-07-28T07:42:57.876Z,99987.00
2022-07-28T07:47:59.578Z,99992.25
2022-07-28T07:53:01.356Z,99988.81
2022-07-28T07:58:04.016Z,99965.63
2022-07-28T08:03:11.179Z,99968.72
2022-07-28T08:08:13.420Z,99963.91
2022-07-28T08:13:15.189Z,99967.28
2022-07-28T08:18:16.930Z,99959.66
2022-07-28T08:23:22.886Z,99960.50
2022-07-28T08:28:27.867Z,99962.81
2022-07-28T08:33:30.463Z,99957.66
2022-07-28T08:38:32.181Z,99961.09
2022-07-28T08:43:38.251Z,99954.25
2022-07-28T08:48:40.547Z,99954.13
2022-07-28T08:53:43.856Z,99946.16
2022-07-28T08:58:45.578Z,99944.88
2022-07-28T09:03:47.873Z,99946.00
2022-07-28T09:08:49.597Z,99931.47
2022-07-28T09:13:54.008Z,99941.81
2022-07-28T09:18:55.988Z,99929.34
2022-07-28T09:23:58.429Z,99924.78
2022-07-28T09:29:01.980Z,99911.81
2022-07-28T09:34:06.539Z,99905.50
2022-07-28T09:39:08.801Z,99917.53
2022-07-28T09:44:21.839Z,99904.91
2022-07-28T09:49:42.963Z,99894.09
2022-07-28T09:55:01.105Z,99891.94
2022-07-28T10:00:07.319Z,99888.41
2022-07-28T10:05:11.421Z,99893.72
2022-07-28T10:10:13.155Z,99888.03
2022-07-28T10:15:35.993Z,99889.03
2022-07-28T10:20:38.409Z,99883.72
2022-07-28T10:25:43.463Z,99870.50
2022-07-28T10:30:46.619Z,99866.31
2022-07-28T10:35:55.285Z,99851.66
2022-07-28T10:40:59.742Z,99839.97
2022-07-28T10:46:06.803Z,99845.09
2022-07-28T10:51:10.803Z,99843.75
2022-07-28T10:56:35.439Z,99831.53
2022-07-28T11:01:49.538Z,99833.50
2022-07-28T11:06:51.725Z,99828.22
2022-07-28T11:11:55.536Z,99832.41
2022-07-28T11:17:00.530Z,99821.31
2022-07-28T11:22:24.964Z,99814.47
2022-07-28T11:27:49.737Z,99812.47
2022-07-28T11:32:51.550Z,99810.84
2022-07-28T11:38:02.097Z,99802.44
2022-07-28T11:43:39.513Z,99793.97
2022-07-28T11:48:45.647Z,99796.66
2022-07-28T11:53:48.845Z,99787.44
2022-07-28T11:58:58.435Z,99783.34
2022-07-28T12:04:01.227Z,99784.63
2022-07-28T12:09:11.360Z,99776.06
2022-07-28T12:14:16.592Z,99776.28
2022-07-28T12:19:21.180Z,99773.41
2022-07-28T12:24:32.048Z,99769.06
2022-07-28T12:29:57.457Z,99763.53
2022-07-28T12:34:59.277Z,99765.47
2022-07-28T12:40:02.748Z,99757.66
2022-07-28T12:45:07.890Z,99757.47
2022-07-28T12:50:15.951Z,99755.03
2022-07-28T12:55:23.233Z,99752.56
2022-07-28T13:00:31.733Z,99742.72
2022-07-28T13:05:33.985Z,99741.28
2022-07-28T13:10:46.230Z,99738.91
2022-07-28T13:16:12.249Z,99735.41
2022-07-28T13:21:15.237Z,99735.94
2022-07-28T13:26:16.983Z,99740.72
2022-07-28T13:31:20.136Z,99734.94
2022-07-28T13:36:21.911Z,99731.63
2022-07-28T13:41:24.181Z,99729.19
2022-07-28T13:46:27.058Z,99730.41
2022-07-28T13:51:31.256Z,99708.06
2022-07-28T13:56:36.928Z,99710.59
2022-07-28T14:01:42.516Z,99702.06
2022-07-28T14:06:45.389Z,99721.50
2022-07-28T14:11:49.925Z,99718.06
2022-07-28T14:16:56.106Z,99710.03
2022-07-28T14:21:58.613Z,99700.56
2022-07-28T14:27:00.323Z,99706.84
2022-07-28T14:32:02.029Z,99704.94
2022-07-28T14:37:08.520Z,99701.00
2022-07-28T14:42:11.122Z,99698.31
2022-07-28T14:47:12.957Z,99686.06
2022-07-28T14:52:14.710Z,99693.38
2022-07-28T14:57:17.193Z,99688.41
2022-07-28T15:02:19.099Z,99694.81
2022-07-28T15:07:31.520Z,99685.34
2022-07-28T15:12:33.299Z,99679.94
2022-07-28T15:17:35.891Z,99673.97
2022-07-28T15:22:37.744Z,99683.47
2022-07-28T15:27:45.394Z,99684.09
2022-07-28T15:32:57.032Z,99674.56
2022-07-28T15:37:59.297Z,99674.78
2022-07-28T15:43:01.302Z,99667.34
2022-07-28T15:48:03.068Z,99667.38
2022-07-28T15:53:04.859Z,99656.59
2022-07-28T15:58:06.777Z,99661.69
2022-07-28T16:03:09.117Z,99656.28
2022-07-28T16:08:10.938Z,99655.91
2022-07-28T16:13:13.671Z,99644.38
2022-07-28T16:18:15.537Z,99641.44
2022-07-28T16:23:17.217Z,99638.34
2022-07-28T16:28:19.002Z,99629.00
2022-07-28T16:33:20.705Z,99635.59
2022-07-28T16:38:22.445Z,99624.91
2022-07-28T16:43:24.764Z,99623.56
2022-07-28T16:48:26.521Z,99624.75
2022-07-28T16:53:28.198Z,99622.91
2022-07-28T16:58:30.197Z,99624.06
2022-07-28T17:03:31.975Z,99631.66
2022-07-28T17:08:34.220Z,99629.47
2022-07-28T17:13:36.066Z,99628.84
2022-07-28T17:18:37.814Z,99637.06
2022-07-28T17:23:39.742Z,99629.97
2022-07-28T17:28:41.478Z,99634.06
2022-07-28T17:33:43.338Z,99631.44
2022-07-28T17:38:45.047Z,99631.16
2022-07-28T17:43:46.812Z,99630.47
2022-07-28T17:48:48.625Z,99629.41
2022-07-28T17:53:50.433Z,99615.38
2022-07-28T17:58:53.225Z,99625.69
2022-07-28T18:03:56.522Z,99629.66
2022-07-28T18:09:08.101Z,99633.81
2022-07-28T18:14:11.248Z,99633.75
2022-07-28T18:19:18.038Z,99638.97
2022-07-28T18:24:26.399Z,99639.53
2022-07-28T18:29:38.618Z,99640.41
2022-07-28T18:34:41.827Z,99641.34
2022-07-28T18:39:43.640Z,99645.25
2022-07-28T18:44:48.302Z,99655.16
2022-07-28T18:49:56.583Z,99659.97
2022-07-28T18:54:59.746Z,99659.47
2022-07-28T19:00:01.695Z,99665.66
2022-07-28T19:05:05.813Z,99669.25
2022-07-28T19:10:08.002Z,99667.25
2022-07-28T19:15:09.937Z,99671.22
2022-07-28T19:20:12.028Z,99663.94
2022-07-28T19:25:13.857Z,99671.56
2022-07-28T19:30:16.017Z,99678.72
2022-07-28T19:35:17.775Z,99687.72
2022-07-28T19:40:19.833Z,99691.66
2022-07-28T19:45:21.587Z,99701.09
2022-07-28T19:50:23.692Z,99706.66
2022-07-28T19:55:27.076Z,99702.75
2022-07-28T20:00:30.992Z,99720.81
2022-07-28T20:05:32.875Z,99713.03
2022-07-28T20:10:35.369Z,99719.94
2022-07-28T20:15:39.472Z,99730.16
2022-07-28T20:20:41.750Z,99730.50
2022-07-28T20:25:45.381Z,99730.06
2022-07-28T20:30:47.144Z,99732.28
2022-07-28T20:35:48.961Z,99745.16
2022-07-28T20:40:54.911Z,99749.31
2022-07-28T20:45:56.703Z,99747.53
2022-07-28T20:50:58.454Z,99752.84
2022-07-28T20:56:00.472Z,99754.69
2022-07-28T21:01:02.251Z,99764.84
2022-07-28T21:06:04.173Z,99770.81
2022-07-28T21:11:05.901Z,99770.31
2022-07-28T21:16:07.774Z,99784.31
2022-07-28T21:21:09.501Z,99782.13
2022-07-28T21:26:12.578Z,99776.97
2022-07-28T21:31:14.265Z,99782.97
2022-07-28T21:36:16.443Z,99784.47
2022-07-28T21:41:19.061Z,99791.78
2022-07-28T21:46:23.875Z,99793.84
2022-07-28T21:51:29.311Z,99796.50
2022-07-28T21:56:34.413Z,99803.25
2022-07-28T22:01:36.320Z,99801.31
2022-07-28T22:06:38.146Z,99800.38
2022-07-28T22:11:39.845Z,99807.63
2022-07-28T22:16:41.642Z,99809.44
2022-07-28T22:21:43.411Z,99803.13
2022-07-28T22:26:45.141Z,99805.16
2022-07-28T22:31:47.117Z,99805.66
2022-07-28T22:36:49.226Z,99805.50
2022-07-28T22:41:50.950Z,99808.31
2022-07-28T22:46:52.711Z,99810.72
2022-07-28T22:51:54.603Z,99820.28
2022-07-28T22:57:21.725Z,99807.69
2022-07-28T23:02:25.225Z,99801.53
2022-07-28T23:07:51.443Z,99806.72
2022-07-28T23:12:48.630Z,99804.13
2022-07-28T23:17:50.350Z,99807.72
2022-07-28T23:22:52.035Z,99804.84
2022-07-28T23:27:53.742Z,99818.56
2022-07-28T23:32:55.700Z,99813.56
2022-07-28T23:37:57.529Z,99810.28
2022-07-28T23:42:59.236Z,99808.66
2022-07-28T23:48:01.015Z,99804.34
2022-07-28T23:53:02.731Z,99815.47
2022-07-28T23:58:04.518Z,99810.38
